Time;durP1;ratioP1;P1;durP2;ratioP2;P2;SDS_P1;SDS_P2;PMS_P1;PMS_P2;Temp;Humidity;BMP_temperature;BMP_pressure;BME280_temperature;BME280_humidity;BME280_pressure;Samples;Min_cycle;Max_cycle;Signal;HPM_P1;HPM_P2
2023/07/27 00:01:15;;;;;;;3.17;2.65;;;12.80;75.40;;;;;;5035004;28;20031;-73
2023/07/27 00:03:40;;;;;;;5.90;2.95;;;12.80;75.20;;;;;;5034659;28;20021;-73
2023/07/27 00:06:06;;;;;;;4.13;2.58;;;12.80;75.30;;;;;;5034665;28;20104;-73
2023/07/27 00:08:31;;;;;;;5.38;2.90;;;12.80;75.40;;;;;;5046771;28;20040;-73
2023/07/27 00:10:57;;;;;;;3.55;2.83;;;12.80;75.50;;;;;;5055164;28;20074;-76
2023/07/27 00:13:23;;;;;;;4.57;3.28;;;12.80;75.80;;;;;;5072736;28;20059;-73
2023/07/27 00:15:48;;;;;;;3.83;2.70;;;12.80;75.80;;;;;;5072750;28;20060;-74
2023/07/27 00:18:14;;;;;;;3.63;2.25;;;12.80;75.60;;;;;;5072806;28;20020;-73
2023/07/27 00:20:39;;;;;;;4.55;2.85;;;12.80;75.60;;;;;;5072793;28;20021;-74
2023/07/27 00:23:05;;;;;;;2.50;2.30;;;12.80;75.60;;;;;;5072760;28;20025;-74
2023/07/27 00:25:30;;;;;;;6.53;3.10;;;12.80;75.40;;;;;;5072763;28;20033;-73
2023/07/27 00:27:56;;;;;;;3.28;2.38;;;12.80;75.40;;;;;;5072566;28;20045;-74
2023/07/27 00:30:21;;;;;;;6.35;2.83;;;12.80;75.20;;;;;;5072785;28;20390;-74
2023/07/27 00:32:47;;;;;;;6.53;2.42;;;12.80;75.20;;;;;;5072574;28;20033;-74
2023/07/27 00:35:12;;;;;;;5.20;2.80;;;12.70;75.40;;;;;;5072612;28;20093;-73
2023/07/27 00:37:38;;;;;;;3.03;2.35;;;12.70;75.30;;;;;;5072634;28;20032;-74
2023/07/27 00:40:04;;;;;;;4.72;2.88;;;12.70;75.30;;;;;;5072613;28;20028;-75
2023/07/27 00:42:29;;;;;;;4.68;2.80;;;12.70;76.10;;;;;;5072493;28;20373;-73
2023/07/27 00:44:55;;;;;;;3.60;2.78;;;12.70;74.80;;;;;;5072627;28;20035;-75
2023/07/27 00:47:20;;;;;;;6.07;2.72;;;12.80;74.60;;;;;;5054470;28;20016;-74
2023/07/27 00:49:47;;;;;;;3.25;2.55;;;12.80;74.40;;;;;;5054802;28;20059;-75
2023/07/27 00:52:13;;;;;;;4.68;2.95;;;12.90;74.60;;;;;;5072197;28;20033;-73
2023/07/27 00:54:38;;;;;;;5.63;2.53;;;12.80;74.60;;;;;;5072273;28;20048;-74
2023/07/27 00:57:06;;;;;;;5.10;2.83;;;12.80;74.80;;;;;;5072459;28;20044;-78
2023/07/27 00:59:32;;;;;;;2.53;2.33;;;12.80;74.90;;;;;;5054485;28;20054;-73
2023/07/27 01:01:58;;;;;;;2.88;2.35;;;12.80;74.80;;;;;;5072744;28;20107;-75
2023/07/27 01:04:24;;;;;;;5.03;2.83;;;12.90;74.80;;;;;;5076828;28;20031;-74
2023/07/27 01:06:50;;;;;;;3.70;2.63;;;12.90;74.70;;;;;;5074415;28;20040;-73
2023/07/27 01:09:15;;;;;;;3.97;2.58;;;12.90;74.50;;;;;;5076004;28;20025;-74
2023/07/27 01:12:06;;;;;;;3.80;2.58;;;13.00;74.50;;;;;;5076072;28;20532;-73
2023/07/27 01:14:56;;;;;;;2.83;2.13;;;13.00;74.40;;;;;;5075803;28;20020;-72
2023/07/27 01:17:33;;;;;;;3.15;2.60;;;13.00;74.40;;;;;;5075822;28;20531;-73
2023/07/27 01:20:26;;;;;;;4.57;2.55;;;13.00;74.50;;;;;;5075881;28;20472;-73
2023/07/27 01:23:28;;;;;;;4.55;2.65;;;13.10;74.30;;;;;;5075544;28;20028;-72
2023/07/27 01:26:21;;;;;;;4.07;2.70;;;13.10;74.20;;;;;;5075714;28;20124;-73
2023/07/27 01:29:05;;;;;;;4.72;2.63;;;13.20;74.10;;;;;;5057727;28;20544;-74
2023/07/27 01:31:41;;;;;;;4.38;2.75;;;13.30;74.10;;;;;;5075474;28;20021;-74
2023/07/27 01:34:18;;;;;;;4.53;2.67;;;13.30;74.20;;;;;;5075533;28;20361;-73
2023/07/27 01:36:47;;;;;;;3.95;2.15;;;13.30;74.20;;;;;;5075403;28;20417;-74
2023/07/27 01:39:15;;;;;;;5.97;2.35;;;13.30;74.10;;;;;;5040809;28;20052;-74
2023/07/27 01:41:42;;;;;;;5.57;2.17;;;13.30;74.00;;;;;;5075314;28;20035;-73
2023/07/27 01:44:10;;;;;;;2.85;1.80;;;13.30;74.00;;;;;;5075262;28;20025;-74
2023/07/27 01:46:37;;;;;;;3.45;2.35;;;13.40;74.00;;;;;;5075158;28;20017;-74
2023/07/27 01:49:04;;;;;;;3.78;2.20;;;13.40;73.90;;;;;;5075261;28;20028;-72
2023/07/27 01:51:33;;;;;;;4.55;2.42;;;13.50;73.80;;;;;;5057228;28;20017;-73
2023/07/27 01:54:00;;;;;;;3.10;2.00;;;13.50;73.50;;;;;;5057132;28;20040;-73
2023/07/27 01:56:27;;;;;;;3.38;2.28;;;13.60;74.30;;;;;;5057243;28;20036;-74
2023/07/27 01:58:53;;;;;;;3.50;2.47;;;13.70;73.30;;;;;;5057061;28;20036;-74
2023/07/27 02:01:19;;;;;;;5.05;2.53;;;13.70;73.10;;;;;;5057222;28;20036;-73
2023/07/27 02:03:46;;;;;;;3.88;2.10;;;13.70;72.90;;;;;;5057128;28;20059;-72
2023/07/27 02:06:12;;;;;;;5.38;2.33;;;13.80;72.90;;;;;;5073491;28;20433;-73
2023/07/27 02:08:37;;;;;;;2.90;2.13;;;13.80;72.70;;;;;;5074890;28;20020;-74
2023/07/27 02:11:05;;;;;;;4.43;2.42;;;13.90;72.80;;;;;;5074824;28;20468;-73
2023/07/27 02:13:47;;;;;;;3.22;2.38;;;13.90;72.80;;;;;;5074746;28;20044;-74
2023/07/27 02:16:30;;;;;;;2.80;2.22;;;13.90;73.00;;;;;;5074700;28;20037;-74
2023/07/27 02:19:00;;;;;;;3.00;2.22;;;13.90;72.80;;;;;;5073735;28;20020;-75
2023/07/27 02:21:28;;;;;;;3.22;2.35;;;13.90;72.80;;;;;;5074594;28;20119;-74
2023/07/27 02:23:54;;;;;;;3.88;2.60;;;13.90;72.70;;;;;;5074638;28;20021;-73
2023/07/27 02:26:20;;;;;;;2.88;2.30;;;13.90;72.60;;;;;;5074552;28;20025;-75
2023/07/27 02:28:45;;;;;;;3.75;2.65;;;13.90;72.70;;;;;;5074152;28;20049;-75
2023/07/27 02:31:11;;;;;;;4.18;2.80;;;13.90;72.90;;;;;;5074401;28;20052;-75
2023/07/27 02:33:36;;;;;;;3.88;2.70;;;14.00;72.70;;;;;;5074359;28;20033;-73
2023/07/27 02:36:02;;;;;;;3.38;2.33;;;14.00;72.60;;;;;;5056585;28;20109;-75
2023/07/27 02:38:28;;;;;;;3.65;2.35;;;14.00;72.50;;;;;;5073018;28;20017;-74
2023/07/27 02:40:54;;;;;;;3.47;2.47;;;14.10;72.60;;;;;;5073020;28;20025;-73
2023/07/27 02:43:20;;;;;;;4.60;2.20;;;14.10;72.50;;;;;;5056124;28;20032;-73
2023/07/27 02:45:46;;;;;;;4.32;2.63;;;14.10;72.40;;;;;;5056208;28;20025;-74
2023/07/27 02:48:11;;;;;;;4.55;2.20;;;14.10;72.50;;;;;;5072787;28;20021;-73
2023/07/27 02:50:37;;;;;;;2.92;2.38;;;14.10;72.40;;;;;;5056273;28;20032;-73
2023/07/27 02:53:02;;;;;;;5.22;2.63;;;14.10;72.40;;;;;;5056269;28;20495;-73
2023/07/27 02:55:28;;;;;;;4.72;2.25;;;14.20;72.40;;;;;;5073998;28;20032;-74
2023/07/27 02:57:53;;;;;;;2.80;2.35;;;14.20;72.40;;;;;;5073846;28;20040;-73
2023/07/27 03:00:19;;;;;;;3.10;2.17;;;14.20;72.40;;;;;;5055947;28;20040;-74
2023/07/27 03:02:45;;;;;;;3.00;2.30;;;14.20;72.30;;;;;;5072459;28;20028;-74
2023/07/27 03:05:10;;;;;;;3.97;2.65;;;14.20;72.10;;;;;;5056023;28;20488;-73
2023/07/27 03:07:36;;;;;;;3.50;2.63;;;14.30;71.80;;;;;;5056105;28;20024;-73
2023/07/27 03:10:01;;;;;;;2.17;1.98;;;14.30;71.80;;;;;;5055858;28;20016;-74
2023/07/27 03:12:27;;;;;;;4.35;2.40;;;14.30;72.60;;;;;;5055820;28;20123;-73
2023/07/27 03:14:53;;;;;;;2.75;2.30;;;14.30;71.70;;;;;;5055917;28;20024;-74
2023/07/27 03:17:19;;;;;;;2.65;2.20;;;14.40;71.70;;;;;;5055777;28;20439;-74
2023/07/27 03:19:44;;;;;;;3.05;2.33;;;14.40;71.70;;;;;;5055329;28;20043;-73
2023/07/27 03:22:10;;;;;;;4.18;2.20;;;14.40;71.60;;;;;;5055737;28;20469;-74
2023/07/27 03:24:36;;;;;;;3.53;2.40;;;14.40;71.60;;;;;;5055751;28;20488;-73
2023/07/27 03:27:01;;;;;;;3.17;2.25;;;14.40;71.70;;;;;;5055537;28;20408;-74
2023/07/27 03:29:27;;;;;;;3.72;2.20;;;14.40;71.70;;;;;;5055058;28;20098;-74
2023/07/27 03:31:52;;;;;;;2.95;2.10;;;14.40;71.50;;;;;;5071951;28;20028;-73
2023/07/27 03:34:18;;;;;;;2.45;1.98;;;14.40;71.60;;;;;;5055526;28;20115;-74
2023/07/27 03:36:43;;;;;;;2.33;2.10;;;14.40;71.60;;;;;;5055264;28;20036;-75
2023/07/27 03:39:09;;;;;;;3.45;2.17;;;14.40;71.70;;;;;;5055414;28;20469;-74
2023/07/27 03:41:34;;;;;;;3.90;2.10;;;14.40;71.80;;;;;;5055293;28;20024;-74
2023/07/27 03:44:00;;;;;;;3.13;2.15;;;14.40;71.80;;;;;;5055176;28;20036;-74
2023/07/27 03:46:25;;;;;;;5.32;2.80;;;14.40;71.60;;;;;;5055284;28;20433;-73
2023/07/27 03:48:52;;;;;;;3.50;2.20;;;14.40;71.60;;;;;;5055177;28;20384;-74
2023/07/27 03:51:17;;;;;;;3.92;2.15;;;14.40;71.60;;;;;;5071769;28;20388;-74
2023/07/27 03:53:43;;;;;;;3.38;2.05;;;14.40;71.40;;;;;;5055340;28;20099;-73
2023/07/27 03:56:08;;;;;;;2.25;1.83;;;14.40;71.00;;;;;;5054977;28;20032;-73
2023/07/27 03:58:34;;;;;;;2.63;2.00;;;14.40;71.10;;;;;;5055207;28;20021;-73
2023/07/27 04:01:00;;;;;;;2.42;1.95;;;14.40;71.00;;;;;;5071538;28;20025;-75
2023/07/27 04:03:25;;;;;;;4.15;2.35;;;14.50;70.80;;;;;;5054741;28;20060;-73
2023/07/27 04:05:51;;;;;;;2.33;2.13;;;14.50;70.70;;;;;;5055231;28;20029;-74
2023/07/27 04:08:18;;;;;;;2.15;1.75;;;14.40;70.50;;;;;;5072725;28;20393;-73
2023/07/27 04:10:43;;;;;;;3.13;2.20;;;14.50;70.70;;;;;;5071848;28;20025;-74
2023/07/27 04:13:10;;;;;;;2.72;2.25;;;14.50;70.80;;;;;;5072101;28;20035;-74
2023/07/27 04:15:37;;;;;;;3.58;2.10;;;14.40;70.80;;;;;;5071374;28;20338;-73
2023/07/27 04:18:03;;;;;;;3.47;2.20;;;14.40;71.10;;;;;;5054971;28;20036;-73
2023/07/27 04:20:29;;;;;;;3.20;2.10;;;14.40;70.90;;;;;;5054945;28;20056;-74
2023/07/27 04:22:54;;;;;;;3.25;2.40;;;14.40;70.90;;;;;;5072686;28;20052;-73
2023/07/27 04:25:20;;;;;;;3.63;2.20;;;14.50;70.70;;;;;;5055020;28;20115;-72
2023/07/27 04:27:46;;;;;;;5.55;2.55;;;14.50;70.50;;;;;;5071237;28;20123;-76
2023/07/27 04:30:11;;;;;;;3.03;1.90;;;14.60;70.30;;;;;;5054717;28;20025;-73
2023/07/27 04:32:37;;;;;;;3.08;2.20;;;14.60;70.10;;;;;;5055021;28;20534;-74
2023/07/27 04:35:03;;;;;;;4.05;1.73;;;14.60;70.10;;;;;;5054679;28;20051;-74
2023/07/27 04:37:28;;;;;;;2.80;2.00;;;14.60;70.10;;;;;;5072657;28;20070;-77
2023/07/27 04:39:54;;;;;;;2.97;1.95;;;14.70;70.00;;;;;;5054884;28;20029;-74
2023/07/27 04:42:19;;;;;;;2.38;2.00;;;14.70;69.40;;;;;;5056847;28;20027;-74
2023/07/27 04:44:45;;;;;;;4.63;2.20;;;14.80;69.10;;;;;;5076209;28;20039;-73
2023/07/27 04:47:10;;;;;;;3.90;2.20;;;14.80;68.60;;;;;;5058714;28;20024;-73
2023/07/27 04:49:36;;;;;;;3.25;1.95;;;14.80;68.70;;;;;;5076394;28;20071;-73
2023/07/27 04:52:01;;;;;;;2.53;2.30;;;14.90;68.60;;;;;;5058478;28;20024;-74
2023/07/27 04:54:27;;;;;;;4.18;2.30;;;15.00;68.10;;;;;;5080119;28;20020;-74
2023/07/27 04:56:52;;;;;;;3.28;1.90;;;15.00;67.90;;;;;;5058885;28;20029;-73
2023/07/27 04:59:18;;;;;;;3.63;2.28;;;15.00;68.10;;;;;;5060610;28;20031;-73
2023/07/27 05:01:43;;;;;;;4.05;1.90;;;15.00;68.10;;;;;;5061480;28;20025;-75
2023/07/27 05:04:09;;;;;;;3.05;2.33;;;15.10;68.20;;;;;;5076153;28;20035;-74
2023/07/27 05:06:35;;;;;;;5.13;2.50;;;15.10;66.80;;;;;;5058500;28;20025;-74
2023/07/27 05:09:01;;;;;;;4.47;2.55;;;15.20;65.90;;;;;;5074924;28;20036;-74
2023/07/27 05:11:28;;;;;;;3.35;2.47;;;15.20;65.50;;;;;;5075974;28;20058;-74
2023/07/27 05:13:53;;;;;;;5.47;2.78;;;15.30;65.20;;;;;;5075688;28;20024;-73
2023/07/27 05:16:19;;;;;;;3.95;2.50;;;15.30;64.60;;;;;;5075641;28;20037;-75
2023/07/27 05:18:44;;;;;;;3.55;2.30;;;15.40;64.20;;;;;;5057921;28;20029;-73
2023/07/27 05:21:10;;;;;;;4.32;2.58;;;15.40;64.00;;;;;;5057887;28;20388;-75
2023/07/27 05:23:35;;;;;;;3.22;2.30;;;15.40;64.30;;;;;;5075838;28;20411;-75
2023/07/27 05:26:01;;;;;;;3.55;2.50;;;15.50;64.20;;;;;;5058181;28;20111;-76
2023/07/27 05:28:26;;;;;;;3.65;2.25;;;15.40;65.10;;;;;;5057784;28;20045;-76
2023/07/27 05:30:52;;;;;;;5.03;2.55;;;15.40;64.50;;;;;;5075525;28;20485;-75
2023/07/27 05:33:18;;;;;;;7.35;2.88;;;15.40;64.30;;;;;;5057474;28;20464;-76
2023/07/27 05:35:48;;;;;;;3.10;2.35;;;15.40;64.30;;;;;;5057568;28;20059;-74
2023/07/27 05:38:15;;;;;;;5.80;2.70;;;15.40;64.60;;;;;;5075399;28;20020;-74
2023/07/27 05:40:41;;;;;;;4.00;2.53;;;15.40;64.40;;;;;;5057618;28;20027;-75
2023/07/27 05:43:06;;;;;;;4.72;2.45;;;15.50;64.40;;;;;;5075203;28;20092;-75
2023/07/27 05:45:32;;;;;;;4.97;2.40;;;15.50;64.10;;;;;;5057602;28;20020;-74
2023/07/27 05:47:57;;;;;;;4.13;2.53;;;15.50;64.30;;;;;;5057331;28;20059;-75
2023/07/27 05:50:24;;;;;;;2.25;2.05;;;15.60;62.60;;;;;;5057422;28;20023;-75
2023/07/27 05:52:50;;;;;;;2.60;2.22;;;15.70;62.30;;;;;;5074000;28;20020;-74
2023/07/27 05:55:16;;;;;;;3.08;2.63;;;15.80;62.00;;;;;;5075044;28;20211;-73
2023/07/27 05:57:41;;;;;;;6.07;2.53;;;15.90;61.60;;;;;;5057201;28;20025;-74
2023/07/27 06:00:08;;;;;;;4.45;2.47;;;15.90;61.40;;;;;;5057039;28;20497;-74
2023/07/27 06:02:34;;;;;;;4.63;2.22;;;16.00;60.30;;;;;;5057098;28;20132;-74
2023/07/27 06:05:00;;;;;;;2.33;2.03;;;16.10;59.80;;;;;;5074874;28;20029;-76
2023/07/27 06:07:26;;;;;;;2.85;1.95;;;16.10;59.60;;;;;;5056973;28;20079;-76
2023/07/27 06:09:52;;;;;;;3.42;2.28;;;16.20;59.50;;;;;;5074020;28;20016;-76
2023/07/27 06:12:18;;;;;;;5.80;2.00;;;16.30;59.60;;;;;;5057029;28;20384;-74
2023/07/27 06:14:44;;;;;;;2.97;1.85;;;16.30;60.00;;;;;;5073546;28;20040;-74
2023/07/27 06:17:10;;;;;;;2.30;1.90;;;16.30;59.80;;;;;;5074510;28;20129;-75
2023/07/27 06:19:35;;;;;;;2.63;1.90;;;16.30;60.50;;;;;;5074733;28;20031;-74
2023/07/27 06:22:01;;;;;;;6.32;2.78;;;16.20;60.30;;;;;;5075537;28;20028;-73
2023/07/27 06:24:27;;;;;;;6.22;2.22;;;16.20;60.60;;;;;;5076784;28;20020;-74
2023/07/27 06:26:52;;;;;;;2.88;2.35;;;16.20;61.20;;;;;;5074490;28;20032;-74
2023/07/27 06:29:18;;;;;;;8.30;3.33;;;16.20;61.50;;;;;;5074217;28;20136;-73
2023/07/27 06:31:44;;;;;;;3.63;2.60;;;16.10;61.70;;;;;;5074213;28;20099;-75
2023/07/27 06:34:10;;;;;;;2.80;2.42;;;16.10;61.90;;;;;;5074102;28;20027;-76
2023/07/27 06:36:36;;;;;;;2.85;2.00;;;16.10;62.10;;;;;;5074095;28;20036;-75
2023/07/27 06:39:02;;;;;;;3.80;2.17;;;16.10;62.30;;;;;;5074055;28;20023;-78
2023/07/27 06:41:28;;;;;;;4.50;2.35;;;16.20;62.60;;;;;;5072514;28;20025;-77
2023/07/27 06:43:53;;;;;;;4.28;2.58;;;16.10;62.80;;;;;;5073822;28;20104;-75
2023/07/27 06:46:20;;;;;;;3.85;2.30;;;16.10;62.60;;;;;;5074419;28;20030;-74
2023/07/27 06:48:46;;;;;;;4.72;2.50;;;16.10;63.00;;;;;;5074295;28;20083;-74
2023/07/27 06:51:13;;;;;;;3.05;2.40;;;16.10;63.00;;;;;;5073750;28;20095;-73
2023/07/27 06:53:38;;;;;;;3.17;2.10;;;16.10;63.70;;;;;;5073899;28;20024;-74
2023/07/27 06:56:04;;;;;;;5.82;2.30;;;16.10;63.60;;;;;;5073654;28;20033;-74
2023/07/27 06:58:30;;;;;;;4.28;2.42;;;16.10;63.40;;;;;;5073795;28;20036;-73
2023/07/27 07:00:56;;;;;;;6.85;2.60;;;16.10;63.80;;;;;;5073662;28;20035;-74
2023/07/27 07:03:22;;;;;;;2.85;2.10;;;16.10;64.00;;;;;;5073737;28;20031;-75
2023/07/27 07:05:47;;;;;;;4.47;2.72;;;16.10;64.30;;;;;;5072878;28;20551;-76
2023/07/27 07:08:13;;;;;;;3.88;2.08;;;16.10;64.20;;;;;;5073545;28;20025;-76
2023/07/27 07:10:38;;;;;;;4.85;2.45;;;16.10;64.30;;;;;;5073315;28;20024;-76
2023/07/27 07:13:04;;;;;;;4.72;2.35;;;16.10;64.30;;;;;;5073379;28;20025;-74
2023/07/27 07:15:30;;;;;;;7.70;3.03;;;16.10;64.70;;;;;;5073529;28;20035;-86
2023/07/27 07:17:55;;;;;;;3.97;2.20;;;16.10;66.30;;;;;;5073604;28;20528;-75
2023/07/27 07:20:21;;;;;;;4.15;3.10;;;16.20;65.00;;;;;;5073345;28;20064;-75
2023/07/27 07:22:46;;;;;;;5.95;2.55;;;16.30;65.40;;;;;;5055310;28;20412;-73
2023/07/27 07:25:12;;;;;;;7.63;2.40;;;16.30;65.40;;;;;;5073446;28;20508;-74
2023/07/27 07:27:38;;;;;;;11.95;2.50;;;16.40;64.60;;;;;;5072771;28;20115;-74
2023/07/27 07:30:04;;;;;;;3.95;2.45;;;16.60;64.60;;;;;;5073107;28;20525;-76
2023/07/27 07:32:31;;;;;;;3.53;1.98;;;16.70;64.30;;;;;;5071948;28;20059;-76
2023/07/27 07:34:57;;;;;;;6.50;2.58;;;16.80;63.30;;;;;;5072646;28;20032;-78
2023/07/27 07:37:23;;;;;;;6.82;2.33;;;16.90;62.80;;;;;;5072942;28;20064;-76
2023/07/27 07:39:48;;;;;;;5.00;2.38;;;17.00;62.40;;;;;;5073024;28;20025;-74
2023/07/27 07:42:14;;;;;;;12.70;3.13;;;17.10;62.20;;;;;;5054864;28;20107;-73
2023/07/27 07:44:40;;;;;;;4.10;2.45;;;17.10;61.90;;;;;;5054999;28;20040;-73
2023/07/27 07:47:06;;;;;;;5.22;2.10;;;17.10;61.40;;;;;;5076177;28;20020;-75
2023/07/27 07:49:31;;;;;;;2.85;1.95;;;17.10;61.20;;;;;;5073970;28;20027;-72
2023/07/27 07:51:57;;;;;;;3.95;2.50;;;17.20;60.70;;;;;;5073254;28;20017;-72
2023/07/27 07:54:23;;;;;;;4.18;2.05;;;17.20;60.80;;;;;;5073202;28;20035;-72
2023/07/27 07:56:48;;;;;;;4.00;2.30;;;17.30;61.00;;;;;;5074912;28;20032;-78
2023/07/27 07:59:15;;;;;;;6.05;2.08;;;17.50;60.80;;;;;;5073834;28;20032;-76
2023/07/27 08:01:41;;;;;;;4.80;2.50;;;17.60;60.00;;;;;;5073174;28;20025;-72
2023/07/27 08:04:07;;;;;;;4.95;2.35;;;17.80;59.50;;;;;;5071342;28;20031;-73
2023/07/27 08:06:33;;;;;;;2.33;2.08;;;17.90;59.00;;;;;;5072935;28;20028;-72
2023/07/27 08:08:59;;;;;;;5.28;2.40;;;18.10;58.80;;;;;;5072992;28;20028;-78
2023/07/27 08:11:24;;;;;;;4.13;2.25;;;18.20;58.10;;;;;;5072635;28;20488;-73
2023/07/27 08:13:50;;;;;;;3.10;2.17;;;18.20;57.60;;;;;;5054870;28;20036;-72
2023/07/27 08:16:15;;;;;;;4.00;2.28;;;18.30;58.00;;;;;;5073173;28;20464;-79
2023/07/27 08:18:41;;;;;;;2.35;1.85;;;18.30;57.60;;;;;;5076685;28;20575;-74
2023/07/27 08:21:08;;;;;;;3.10;1.95;;;18.30;57.90;;;;;;5059613;28;20052;-78
2023/07/27 08:23:34;;;;;;;3.10;2.20;;;18.30;57.80;;;;;;5077198;28;20031;-72
2023/07/27 08:26:00;;;;;;;2.00;1.80;;;18.30;57.60;;;;;;5077422;28;20021;-72
2023/07/27 08:28:26;;;;;;;3.53;1.98;;;18.30;58.10;;;;;;5057101;28;20052;-73
2023/07/27 08:30:52;;;;;;;3.35;1.92;;;18.20;57.20;;;;;;5042921;28;20048;-74
2023/07/27 08:33:19;;;;;;;4.95;2.20;;;18.30;57.40;;;;;;5038677;28;20465;-73
2023/07/27 08:35:45;;;;;;;3.80;2.17;;;18.30;55.50;;;;;;5041010;28;20115;-74
2023/07/27 08:38:10;;;;;;;2.75;2.10;;;18.40;56.80;;;;;;5038624;28;20112;-74
2023/07/27 08:40:36;;;;;;;2.88;1.98;;;18.30;56.70;;;;;;5039256;28;20451;-74
2023/07/27 08:43:07;;;;;;;3.13;1.83;;;18.30;57.60;;;;;;5040101;28;20082;-74
2023/07/27 08:45:35;;;;;;;5.65;2.15;;;18.30;57.90;;;;;;5041879;28;20357;-76
2023/07/27 08:48:01;;;;;;;4.53;2.28;;;18.40;58.00;;;;;;5043836;28;20104;-76
2023/07/27 08:50:27;;;;;;;3.45;2.20;;;18.40;57.70;;;;;;5056291;28;20021;-74
2023/07/27 08:52:53;;;;;;;2.72;1.92;;;18.40;57.60;;;;;;5038578;28;20037;-75
2023/07/27 08:55:19;;;;;;;5.97;2.67;;;18.40;56.50;;;;;;5038215;28;20033;-75
2023/07/27 08:57:44;;;;;;;3.63;2.35;;;18.40;57.40;;;;;;5038169;28;20411;-74
2023/07/27 09:00:11;;;;;;;5.85;3.15;;;18.40;56.60;;;;;;5037961;28;20055;-75
2023/07/27 09:02:38;;;;;;;8.88;4.20;;;18.50;57.60;;;;;;5037976;28;20049;-74
2023/07/27 09:05:09;;;;;;;4.05;2.05;;;18.60;57.20;;;;;;5037405;28;20107;-75
2023/07/27 09:07:34;;;;;;;4.43;2.80;;;18.50;53.20;;;;;;5038108;28;20047;-75
2023/07/27 09:10:07;;;;;;;6.15;3.35;;;18.60;56.40;;;;;;5037684;28;20447;-77
2023/07/27 09:12:33;;;;;;;4.55;3.05;;;18.50;56.60;;;;;;5055617;28;20021;-81
2023/07/27 09:14:58;;;;;;;3.45;2.10;;;18.50;56.30;;;;;;5037821;28;20064;-81
2023/07/27 09:17:25;;;;;;;3.83;2.63;;;18.60;54.40;;;;;;5037679;28;20088;-75
2023/07/27 09:19:51;;;;;;;2.58;1.80;;;18.70;56.20;;;;;;5037041;28;20068;-75
2023/07/27 09:22:17;;;;;;;3.70;1.88;;;18.80;53.60;;;;;;5054327;28;20440;-75
2023/07/27 09:24:43;;;;;;;2.33;1.60;;;19.00;54.30;;;;;;5037631;28;20036;-75
2023/07/27 09:27:11;;;;;;;2.35;1.38;;;19.10;53.10;;;;;;5037378;28;20026;-76
2023/07/27 09:29:37;;;;;;;2.40;1.25;;;19.10;52.00;;;;;;5037035;28;20044;-75
2023/07/27 09:32:04;;;;;;;2.55;1.63;;;19.20;51.50;;;;;;5037501;28;20021;-77
2023/07/27 09:34:32;;;;;;;2.00;1.20;;;19.10;52.00;;;;;;5054266;28;20021;-74
2023/07/27 09:37:05;;;;;;;3.00;1.30;;;19.10;52.60;;;;;;5037345;28;20433;-74
2023/07/27 09:39:42;;;;;;;2.33;1.33;;;19.20;51.90;;;;;;5045385;28;20086;-78
2023/07/27 09:42:10;;;;;;;2.95;1.30;;;19.10;52.10;;;;;;5065770;28;20078;-80
2023/07/27 09:44:49;;;;;;;2.35;1.40;;;19.10;51.90;;;;;;5063587;28;20025;-78
2023/07/27 09:47:23;;;;;;;4.88;1.40;;;19.20;51.80;;;;;;5060254;28;20445;-78
2023/07/27 09:49:52;;;;;;;2.95;1.45;;;19.30;51.90;;;;;;5061977;28;20021;-72
2023/07/27 09:52:19;;;;;;;4.13;1.30;;;19.30;52.20;;;;;;5045295;28;20047;-78
2023/07/27 09:54:48;;;;;;;3.95;1.30;;;19.40;51.90;;;;;;5046801;28;20020;-79
2023/07/27 09:57:14;;;;;;;1.73;1.30;;;19.30;52.00;;;;;;5044705;28;20055;-79
2023/07/27 09:59:41;;;;;;;2.58;1.33;;;19.20;52.20;;;;;;5047491;28;20461;-78
2023/07/27 10:02:07;;;;;;;2.33;1.30;;;19.20;52.60;;;;;;5044518;28;20105;-79
2023/07/27 10:04:33;;;;;;;3.25;1.40;;;19.20;53.00;;;;;;5044492;28;20078;-80
2023/07/27 10:06:58;;;;;;;2.92;1.52;;;19.20;52.30;;;;;;5064855;28;20082;-73
2023/07/27 10:09:24;;;;;;;1.75;1.35;;;19.30;52.20;;;;;;5063385;28;20097;-73
2023/07/27 10:11:59;;;;;;;2.40;1.40;;;19.40;52.00;;;;;;5063659;28;20099;-72
2023/07/27 10:14:26;;;;;;;;;;;19.40;52.50;;;;;;5041547;28;20481;-75
2023/07/27 10:17:01;;;;;;;3.20;1.73;;;19.30;52.60;;;;;;5053818;28;19956;-73
2023/07/27 10:19:44;;;;;;;3.83;1.58;;;19.30;53.20;;;;;;5054085;28;20023;-72
2023/07/27 10:22:14;;;;;;;2.97;1.55;;;19.30;52.50;;;;;;5054163;28;20481;-72
2023/07/27 10:24:47;;;;;;;1.75;1.52;;;19.50;52.10;;;;;;5034916;28;20021;-71
2023/07/27 10:27:13;;;;;;;1.40;1.30;;;19.50;51.60;;;;;;5053862;28;20382;-81
2023/07/27 10:29:38;;;;;;;4.75;1.90;;;19.60;52.00;;;;;;5053748;28;20053;-72
2023/07/27 10:32:10;;;;;;;2.33;1.67;;;19.70;52.10;;;;;;5053597;28;20029;-72
2023/07/27 10:34:37;;;;;;;3.90;1.88;;;19.70;52.00;;;;;;5053747;28;20033;-75
2023/07/27 10:37:03;;;;;;;4.10;1.60;;;19.70;52.00;;;;;;5053621;28;20504;-74
2023/07/27 10:39:34;;;;;;;2.28;1.35;;;20.00;51.60;;;;;;5052935;28;20029;-74
2023/07/27 10:42:05;;;;;;;5.68;1.48;;;20.00;51.10;;;;;;5053621;28;20412;-76
2023/07/27 10:44:48;;;;;;;1.75;1.33;;;20.10;51.70;;;;;;5053305;28;20477;-72
2023/07/27 10:47:16;;;;;;;2.50;1.73;;;20.20;51.80;;;;;;5053640;28;20029;-73
2023/07/27 10:49:43;;;;;;;4.32;1.77;;;20.20;51.90;;;;;;5053638;28;20020;-72
2023/07/27 10:52:15;;;;;;;2.58;1.60;;;20.30;52.20;;;;;;5053530;28;20044;-72
2023/07/27 10:54:42;;;;;;;3.00;1.40;;;20.40;52.40;;;;;;5053463;28;20025;-73
2023/07/27 10:57:09;;;;;;;2.70;1.70;;;20.30;51.90;;;;;;5056031;28;20067;-73
2023/07/27 10:59:40;;;;;;;3.30;1.90;;;20.20;52.80;;;;;;5062344;28;20058;-73
2023/07/27 11:02:11;;;;;;;2.92;1.83;;;20.10;52.50;;;;;;5067694;28;20043;-73
2023/07/27 11:04:39;;;;;;;2.10;1.70;;;20.20;53.00;;;;;;5064549;28;20547;-72
2023/07/27 11:07:06;;;;;;;2.42;1.67;;;20.20;53.20;;;;;;5061933;28;20033;-75
2023/07/27 11:09:31;;;;;;;4.15;2.17;;;20.20;53.40;;;;;;5065288;28;20044;-80
2023/07/27 11:12:03;;;;;;;6.10;2.03;;;20.20;53.30;;;;;;5062927;28;20021;-79
2023/07/27 11:14:29;;;;;;;4.63;1.67;;;20.10;53.90;;;;;;5055634;28;20437;-77
2023/07/27 11:16:55;;;;;;;3.33;1.70;;;20.10;54.70;;;;;;5053046;28;20033;-80
2023/07/27 11:19:23;;;;;;;4.13;1.83;;;20.10;54.80;;;;;;5053077;28;20358;-79
2023/07/27 11:21:49;;;;;;;7.90;2.47;;;20.20;54.60;;;;;;5053113;28;20033;-72
2023/07/27 11:24:16;;;;;;;2.35;1.35;;;20.20;54.90;;;;;;5053079;28;20062;-76
2023/07/27 11:26:42;;;;;;;2.05;1.52;;;20.30;55.00;;;;;;5052959;28;20048;-72
2023/07/27 11:29:09;;;;;;;2.53;1.40;;;20.30;55.50;;;;;;5052814;28;20124;-78
2023/07/27 11:31:35;;;;;;;2.28;1.50;;;20.30;55.50;;;;;;5053024;28;20017;-73
2023/07/27 11:34:02;;;;;;;3.45;1.67;;;20.30;56.30;;;;;;5052872;28;20029;-73
2023/07/27 11:36:32;;;;;;;4.57;1.60;;;20.30;55.90;;;;;;5052914;28;20041;-76
2023/07/27 11:38:58;;;;;;;3.08;1.48;;;20.30;56.30;;;;;;5052565;28;20100;-73
2023/07/27 11:41:29;;;;;;;3.65;1.48;;;20.40;56.00;;;;;;5052592;28;20021;-73
2023/07/27 11:43:55;;;;;;;1.90;1.42;;;20.70;55.50;;;;;;5052656;28;20033;-72
2023/07/27 11:46:22;;;;;;;3.00;1.83;;;20.80;55.30;;;;;;5053013;28;20029;-77
2023/07/27 11:48:49;;;;;;;2.15;1.48;;;21.00;55.70;;;;;;5035041;28;20025;-75
2023/07/27 11:51:14;;;;;;;3.53;1.30;;;21.20;53.90;;;;;;5052723;28;20040;-79
2023/07/27 11:53:43;;;;;;;1.73;1.60;;;21.00;53.80;;;;;;5052797;28;20013;-75
2023/07/27 11:56:09;;;;;;;5.03;1.45;;;21.00;54.30;;;;;;5052605;28;20033;-74
2023/07/27 11:58:36;;;;;;;1.42;1.33;;;21.00;54.40;;;;;;5052614;28;20032;-79
2023/07/27 12:01:03;;;;;;;4.57;1.77;;;20.90;54.30;;;;;;5057671;28;20025;-74
2023/07/27 12:03:31;;;;;;;2.83;1.40;;;20.90;55.50;;;;;;5061537;28;20103;-72
2023/07/27 12:05:57;;;;;;;2.40;2.20;;;21.00;54.70;;;;;;5062621;28;20023;-73
2023/07/27 12:08:23;;;;;;;3.65;1.50;;;20.90;55.80;;;;;;5063055;28;20025;-73
2023/07/27 12:10:53;;;;;;;6.20;1.70;;;20.90;55.80;;;;;;5061178;28;20035;-72
2023/07/27 12:13:21;;;;;;;3.30;1.80;;;20.80;56.30;;;;;;5062251;28;20027;-73
2023/07/27 12:15:58;;;;;;;2.97;1.73;;;20.70;57.30;;;;;;5063029;28;20074;-74
2023/07/27 12:18:26;;;;;;;2.13;1.35;;;20.70;57.90;;;;;;5062683;28;20155;-73
2023/07/27 12:20:53;;;;;;;1.95;1.50;;;20.60;55.90;;;;;;5062614;28;20024;-74
2023/07/27 12:23:18;;;;;;;3.38;1.80;;;20.50;56.20;;;;;;5061678;28;20029;-73
2023/07/27 12:25:44;;;;;;;2.10;1.58;;;20.40;57.70;;;;;;5060902;28;20035;-73
2023/07/27 12:28:09;;;;;;;3.80;1.80;;;20.30;55.90;;;;;;5063445;28;20043;-74
2023/07/27 12:30:36;;;;;;;3.17;1.55;;;20.20;59.20;;;;;;5072286;28;20556;-75
2023/07/27 12:33:02;;;;;;;2.25;1.73;;;20.20;60.20;;;;;;5054238;28;20013;-73
2023/07/27 12:35:28;;;;;;;2.60;1.60;;;20.20;58.10;;;;;;5072035;28;20029;-74
2023/07/27 12:37:55;;;;;;;2.25;1.55;;;20.20;56.80;;;;;;5071987;28;20052;-74
2023/07/27 12:40:21;;;;;;;1.92;1.75;;;20.20;58.90;;;;;;5072251;28;20059;-75
2023/07/27 12:42:46;;;;;;;2.65;1.65;;;20.10;59.70;;;;;;5069006;28;20368;-73
2023/07/27 12:45:12;;;;;;;3.30;2.10;;;20.00;59.90;;;;;;5071659;28;20114;-74
2023/07/27 12:47:38;;;;;;;1.98;1.55;;;20.10;59.70;;;;;;5072430;28;20052;-73